Donnelly, ID

11:07 PM MDT on September 03, 2015 (GMT -0600)
TMA Office | | Change Station
CLOSE
Current Station
Personal Weather Station
Location: Donnelly, ID
Elevation: 4875 ft
Nearby Weather Stations

Elev 4875 ft 44.67 °N, 116.12 °W | Updated 7 minutes ago

Clear
Clear
44.6 °F
Feels Like 44.6 °F
N
0.0
Wind Variable Wind from ENE
Gusts 3.1 mph

Today
High -- | Low -- °F
--% Chance of Precip.
Yesterday
High -- | Low -- °F
Precip. -- in
7:09 AM 8:17 PM
Waning Gibbous, 63% visible
Pressure 29.92 in
Visibility 10.0 miles
Clouds Clear
Dew Point 41.6 °F
Humidity 89%
Rainfall 0.07 in
Snow Depth Not available.
UV 0 out of 12
Pollen 7.20 out of 12
Air Quality Not available.
Flu Activity Not available.
METAR KMYL 040451Z AUTO 32005KT 10SM CLR 07/04 A2994 RMK AO2 SLP131 T00670044
Pressure 29.92 in
Visibility 10.0 miles
Clouds Clear
Dew Point 41.6 °F
Humidity 89%
Rainfall 0.07 in
Snow Depth Not available.
UV 0 out of 12
Pollen 7.20 out of 12
Air Quality Not available.
Flu Activity Not available.
METAR KMYL 040451Z AUTO 32005KT 10SM CLR 07/04 A2994 RMK AO2 SLP131 T00670044

10-Day Weather Forecast

×

Almanac

Astronomy

Sep. 03, 2015 Rise Set
Actual Time
Civil Twilight
Nautical Twilight
Astronomical Twilight
Moon
Length of Visible Light
Length of Day
Tomorrow will be .
, % of the Moon is Illuminated

Today's Extremes

State Highs State Lows

Community

WunderPhotos

Upload Photos

1,852,129 photos uploaded!

WunderBlogs® & News

Nearby

Air Quality

  Air Quality AQ Index Pollutant
Not available.

Snow Depth

Station Depth Elevation

Earthquake Activity

City Distance Mag. Time & Date
Minimum magnitude displayed is 2.5.

Coastal Water Temperatures

Place Temperature

Stations

Nearby Weather Stations

Station Location Temp. Windchill Dew Point Humidity Wind Precip. Elev Updated Type